sensor_id;sensor_type;location;lat;lon;timestamp;P1;durP1;ratioP1;P2;durP2;ratioP2
14076;SDS011;7114;51.100;13.998;2022-09-17T00:01:13;6.57;;;0.90;;
14076;SDS011;7114;51.100;13.998;2022-09-17T00:03:41;6.32;;;1.00;;
14076;SDS011;7114;51.100;13.998;2022-09-17T00:06:09;6.85;;;1.38;;
14076;SDS011;7114;51.100;13.998;2022-09-17T00:08:37;6.90;;;1.20;;
14076;SDS011;7114;51.100;13.998;2022-09-17T00:11:05;5.18;;;1.10;;
14076;SDS011;7114;51.100;13.998;2022-09-17T00:13:34;8.53;;;1.40;;
14076;SDS011;7114;51.100;13.998;2022-09-17T00:16:00;6.18;;;1.40;;
14076;SDS011;7114;51.100;13.998;2022-09-17T00:18:27;7.57;;;1.48;;
14076;SDS011;7114;51.100;13.998;2022-09-17T00:20:53;5.65;;;1.13;;
14076;SDS011;7114;51.100;13.998;2022-09-17T00:23:19;6.35;;;1.10;;
14076;SDS011;7114;51.100;13.998;2022-09-17T00:25:45;5.37;;;1.00;;
14076;SDS011;7114;51.100;13.998;2022-09-17T00:28:12;7.55;;;1.10;;
14076;SDS011;7114;51.100;13.998;2022-09-17T00:30:41;5.35;;;0.80;;
14076;SDS011;7114;51.100;13.998;2022-09-17T00:33:08;7.45;;;1.85;;
14076;SDS011;7114;51.100;13.998;2022-09-17T00:35:36;5.82;;;0.98;;
14076;SDS011;7114;51.100;13.998;2022-09-17T00:38:03;6.77;;;0.93;;
14076;SDS011;7114;51.100;13.998;2022-09-17T00:40:29;5.47;;;0.82;;
14076;SDS011;7114;51.100;13.998;2022-09-17T00:42:56;5.90;;;0.80;;
14076;SDS011;7114;51.100;13.998;2022-09-17T00:45:22;5.90;;;0.70;;
14076;SDS011;7114;51.100;13.998;2022-09-17T00:47:51;5.25;;;0.73;;
14076;SDS011;7114;51.100;13.998;2022-09-17T00:50:22;6.37;;;0.80;;
14076;SDS011;7114;51.100;13.998;2022-09-17T00:52:54;4.97;;;0.80;;
14076;SDS011;7114;51.100;13.998;2022-09-17T00:55:22;5.57;;;0.73;;
14076;SDS011;7114;51.100;13.998;2022-09-17T00:57:51;6.65;;;0.70;;
14076;SDS011;7114;51.100;13.998;2022-09-17T01:00:19;8.15;;;0.90;;
14076;SDS011;7114;51.100;13.998;2022-09-17T01:02:45;5.43;;;0.80;;
14076;SDS011;7114;51.100;13.998;2022-09-17T01:05:13;7.07;;;0.90;;
14076;SDS011;7114;51.100;13.998;2022-09-17T01:07:44;6.30;;;0.90;;
14076;SDS011;7114;51.100;13.998;2022-09-17T01:10:33;4.78;;;0.70;;
14076;SDS011;7114;51.100;13.998;2022-09-17T01:13:07;4.97;;;0.88;;
14076;SDS011;7114;51.100;13.998;2022-09-17T01:15:42;5.17;;;0.73;;
14076;SDS011;7114;51.100;13.998;2022-09-17T01:18:15;6.72;;;0.75;;
14076;SDS011;7114;51.100;13.998;2022-09-17T01:20:57;5.05;;;0.60;;
14076;SDS011;7114;51.100;13.998;2022-09-17T01:23:50;7.93;;;0.80;;
14076;SDS011;7114;51.100;13.998;2022-09-17T01:26:36;7.20;;;0.90;;
14076;SDS011;7114;51.100;13.998;2022-09-17T01:29:33;5.33;;;0.80;;
14076;SDS011;7114;51.100;13.998;2022-09-17T01:32:06;5.70;;;0.70;;
14076;SDS011;7114;51.100;13.998;2022-09-17T01:34:36;5.65;;;0.73;;
14076;SDS011;7114;51.100;13.998;2022-09-17T01:37:06;5.20;;;0.93;;
14076;SDS011;7114;51.100;13.998;2022-09-17T01:39:40;6.45;;;1.00;;
14076;SDS011;7114;51.100;13.998;2022-09-17T01:42:13;5.70;;;0.70;;
14076;SDS011;7114;51.100;13.998;2022-09-17T01:44:43;4.30;;;0.60;;
14076;SDS011;7114;51.100;13.998;2022-09-17T01:47:14;5.82;;;0.80;;
14076;SDS011;7114;51.100;13.998;2022-09-17T01:49:44;4.70;;;0.80;;
14076;SDS011;7114;51.100;13.998;2022-09-17T01:52:12;6.80;;;0.73;;
14076;SDS011;7114;51.100;13.998;2022-09-17T01:54:40;5.97;;;0.60;;
14076;SDS011;7114;51.100;13.998;2022-09-17T01:57:10;4.25;;;0.60;;
14076;SDS011;7114;51.100;13.998;2022-09-17T01:59:39;5.90;;;1.25;;
14076;SDS011;7114;51.100;13.998;2022-09-17T02:02:09;6.72;;;0.80;;
14076;SDS011;7114;51.100;13.998;2022-09-17T02:04:39;5.03;;;0.70;;
14076;SDS011;7114;51.100;13.998;2022-09-17T02:07:09;7.80;;;0.70;;
14076;SDS011;7114;51.100;13.998;2022-09-17T02:09:39;5.78;;;0.60;;
14076;SDS011;7114;51.100;13.998;2022-09-17T02:12:09;5.57;;;0.73;;
14076;SDS011;7114;51.100;13.998;2022-09-17T02:14:43;4.43;;;0.90;;
14076;SDS011;7114;51.100;13.998;2022-09-17T02:17:13;3.95;;;0.63;;
14076;SDS011;7114;51.100;13.998;2022-09-17T02:19:43;5.87;;;0.63;;
14076;SDS011;7114;51.100;13.998;2022-09-17T02:22:11;4.68;;;0.73;;
14076;SDS011;7114;51.100;13.998;2022-09-17T02:24:45;5.60;;;0.82;;
14076;SDS011;7114;51.100;13.998;2022-09-17T02:27:16;7.55;;;0.80;;
14076;SDS011;7114;51.100;13.998;2022-09-17T02:29:44;6.25;;;0.77;;
14076;SDS011;7114;51.100;13.998;2022-09-17T02:32:11;5.73;;;0.80;;
14076;SDS011;7114;51.100;13.998;2022-09-17T02:34:37;5.35;;;0.80;;
14076;SDS011;7114;51.100;13.998;2022-09-17T02:37:05;5.65;;;0.90;;
14076;SDS011;7114;51.100;13.998;2022-09-17T02:39:32;5.07;;;0.65;;
14076;SDS011;7114;51.100;13.998;2022-09-17T02:42:01;4.20;;;0.63;;
14076;SDS011;7114;51.100;13.998;2022-09-17T02:44:31;5.03;;;0.77;;
14076;SDS011;7114;51.100;13.998;2022-09-17T02:47:07;6.90;;;0.75;;
14076;SDS011;7114;51.100;13.998;2022-09-17T02:49:59;4.93;;;0.70;;
14076;SDS011;7114;51.100;13.998;2022-09-17T02:52:34;5.97;;;0.70;;
14076;SDS011;7114;51.100;13.998;2022-09-17T02:55:10;6.75;;;0.70;;
14076;SDS011;7114;51.100;13.998;2022-09-17T02:57:39;7.07;;;0.63;;
14076;SDS011;7114;51.100;13.998;2022-09-17T03:00:10;5.43;;;0.80;;
14076;SDS011;7114;51.100;13.998;2022-09-17T03:02:38;6.80;;;1.10;;
14076;SDS011;7114;51.100;13.998;2022-09-17T03:05:08;5.88;;;0.60;;
14076;SDS011;7114;51.100;13.998;2022-09-17T03:07:36;5.88;;;0.70;;
14076;SDS011;7114;51.100;13.998;2022-09-17T03:10:03;5.17;;;0.80;;
14076;SDS011;7114;51.100;13.998;2022-09-17T03:12:30;5.50;;;0.68;;
14076;SDS011;7114;51.100;13.998;2022-09-17T03:14:56;4.00;;;0.50;;
14076;SDS011;7114;51.100;13.998;2022-09-17T03:17:23;5.22;;;0.60;;
14076;SDS011;7114;51.100;13.998;2022-09-17T03:19:49;5.53;;;0.50;;
14076;SDS011;7114;51.100;13.998;2022-09-17T03:22:15;5.00;;;0.67;;
14076;SDS011;7114;51.100;13.998;2022-09-17T03:24:43;5.13;;;0.55;;
14076;SDS011;7114;51.100;13.998;2022-09-17T03:27:09;5.15;;;0.60;;
14076;SDS011;7114;51.100;13.998;2022-09-17T03:29:36;4.68;;;0.50;;
14076;SDS011;7114;51.100;13.998;2022-09-17T03:32:02;5.50;;;0.60;;
14076;SDS011;7114;51.100;13.998;2022-09-17T03:34:29;5.60;;;0.50;;
14076;SDS011;7114;51.100;13.998;2022-09-17T03:36:55;6.05;;;0.60;;
14076;SDS011;7114;51.100;13.998;2022-09-17T03:39:22;5.50;;;0.70;;
14076;SDS011;7114;51.100;13.998;2022-09-17T03:41:49;6.18;;;0.80;;
14076;SDS011;7114;51.100;13.998;2022-09-17T03:44:16;6.10;;;0.65;;
14076;SDS011;7114;51.100;13.998;2022-09-17T03:46:43;5.33;;;0.50;;
14076;SDS011;7114;51.100;13.998;2022-09-17T03:49:09;4.53;;;0.60;;
14076;SDS011;7114;51.100;13.998;2022-09-17T03:51:35;6.40;;;0.50;;
14076;SDS011;7114;51.100;13.998;2022-09-17T03:54:02;5.45;;;0.70;;
14076;SDS011;7114;51.100;13.998;2022-09-17T03:56:28;4.30;;;0.50;;
14076;SDS011;7114;51.100;13.998;2022-09-17T03:58:57;5.27;;;0.67;;
14076;SDS011;7114;51.100;13.998;2022-09-17T04:01:24;5.38;;;0.50;;
14076;SDS011;7114;51.100;13.998;2022-09-17T04:03:50;4.88;;;0.50;;
14076;SDS011;7114;51.100;13.998;2022-09-17T04:06:17;4.75;;;0.70;;
14076;SDS011;7114;51.100;13.998;2022-09-17T04:08:43;3.55;;;0.50;;
14076;SDS011;7114;51.100;13.998;2022-09-17T04:11:09;5.73;;;0.70;;
14076;SDS011;7114;51.100;13.998;2022-09-17T04:13:36;4.38;;;0.60;;
14076;SDS011;7114;51.100;13.998;2022-09-17T04:16:03;4.40;;;0.60;;
14076;SDS011;7114;51.100;13.998;2022-09-17T04:18:30;5.18;;;0.60;;
14076;SDS011;7114;51.100;13.998;2022-09-17T04:20:56;4.88;;;0.65;;
14076;SDS011;7114;51.100;13.998;2022-09-17T04:23:23;5.93;;;0.60;;
14076;SDS011;7114;51.100;13.998;2022-09-17T04:25:49;5.20;;;0.85;;
14076;SDS011;7114;51.100;13.998;2022-09-17T04:28:15;6.88;;;0.68;;
14076;SDS011;7114;51.100;13.998;2022-09-17T04:30:41;5.65;;;0.90;;
14076;SDS011;7114;51.100;13.998;2022-09-17T04:33:09;6.05;;;0.80;;
14076;SDS011;7114;51.100;13.998;2022-09-17T04:35:35;4.13;;;0.63;;
14076;SDS011;7114;51.100;13.998;2022-09-17T04:38:02;5.43;;;0.70;;
14076;SDS011;7114;51.100;13.998;2022-09-17T04:40:28;6.22;;;0.93;;
14076;SDS011;7114;51.100;13.998;2022-09-17T04:42:55;4.85;;;0.70;;
14076;SDS011;7114;51.100;13.998;2022-09-17T04:45:23;6.68;;;0.70;;
14076;SDS011;7114;51.100;13.998;2022-09-17T04:47:49;5.27;;;0.70;;
14076;SDS011;7114;51.100;13.998;2022-09-17T04:50:17;5.85;;;0.90;;
14076;SDS011;7114;51.100;13.998;2022-09-17T04:52:44;5.85;;;0.95;;
14076;SDS011;7114;51.100;13.998;2022-09-17T04:55:11;5.03;;;1.00;;
14076;SDS011;7114;51.100;13.998;2022-09-17T04:57:38;5.75;;;0.95;;
14076;SDS011;7114;51.100;13.998;2022-09-17T05:00:05;5.43;;;0.77;;
14076;SDS011;7114;51.100;13.998;2022-09-17T05:02:32;7.93;;;0.90;;
14076;SDS011;7114;51.100;13.998;2022-09-17T05:04:58;5.68;;;1.00;;
14076;SDS011;7114;51.100;13.998;2022-09-17T05:07:26;5.18;;;0.90;;
14076;SDS011;7114;51.100;13.998;2022-09-17T05:09:52;5.60;;;0.82;;
14076;SDS011;7114;51.100;13.998;2022-09-17T05:12:18;5.50;;;0.77;;
14076;SDS011;7114;51.100;13.998;2022-09-17T05:14:45;4.30;;;1.00;;
14076;SDS011;7114;51.100;13.998;2022-09-17T05:17:11;6.60;;;1.63;;
14076;SDS011;7114;51.100;13.998;2022-09-17T05:19:37;7.97;;;1.08;;
14076;SDS011;7114;51.100;13.998;2022-09-17T05:22:04;5.85;;;1.10;;
14076;SDS011;7114;51.100;13.998;2022-09-17T05:24:31;7.07;;;1.03;;
14076;SDS011;7114;51.100;13.998;2022-09-17T05:27:01;5.50;;;0.88;;
14076;SDS011;7114;51.100;13.998;2022-09-17T05:29:27;4.95;;;1.05;;
14076;SDS011;7114;51.100;13.998;2022-09-17T05:31:54;4.75;;;0.90;;
14076;SDS011;7114;51.100;13.998;2022-09-17T05:34:20;5.75;;;1.17;;
14076;SDS011;7114;51.100;13.998;2022-09-17T05:36:47;5.10;;;0.90;;
14076;SDS011;7114;51.100;13.998;2022-09-17T05:39:13;6.15;;;1.10;;
14076;SDS011;7114;51.100;13.998;2022-09-17T05:41:40;5.70;;;1.20;;
14076;SDS011;7114;51.100;13.998;2022-09-17T05:44:07;7.05;;;1.25;;
14076;SDS011;7114;51.100;13.998;2022-09-17T05:46:33;6.97;;;1.42;;
14076;SDS011;7114;51.100;13.998;2022-09-17T05:48:59;6.57;;;1.77;;
14076;SDS011;7114;51.100;13.998;2022-09-17T05:51:26;5.72;;;1.00;;
14076;SDS011;7114;51.100;13.998;2022-09-17T05:53:52;4.95;;;1.17;;
14076;SDS011;7114;51.100;13.998;2022-09-17T05:56:19;6.35;;;1.30;;
14076;SDS011;7114;51.100;13.998;2022-09-17T05:58:47;6.22;;;1.40;;
14076;SDS011;7114;51.100;13.998;2022-09-17T06:01:13;5.67;;;1.17;;
14076;SDS011;7114;51.100;13.998;2022-09-17T06:03:40;7.35;;;1.48;;
14076;SDS011;7114;51.100;13.998;2022-09-17T06:06:06;6.45;;;1.70;;
14076;SDS011;7114;51.100;13.998;2022-09-17T06:08:33;5.95;;;1.67;;
14076;SDS011;7114;51.100;13.998;2022-09-17T06:11:02;5.00;;;1.20;;
14076;SDS011;7114;51.100;13.998;2022-09-17T06:13:29;6.03;;;1.17;;
14076;SDS011;7114;51.100;13.998;2022-09-17T06:15:56;5.40;;;1.20;;
14076;SDS011;7114;51.100;13.998;2022-09-17T06:18:23;5.50;;;1.25;;
14076;SDS011;7114;51.100;13.998;2022-09-17T06:20:52;5.97;;;1.10;;
14076;SDS011;7114;51.100;13.998;2022-09-17T06:23:19;4.72;;;1.25;;
14076;SDS011;7114;51.100;13.998;2022-09-17T06:25:49;5.20;;;1.23;;
14076;SDS011;7114;51.100;13.998;2022-09-17T06:28:16;5.07;;;1.17;;
14076;SDS011;7114;51.100;13.998;2022-09-17T06:30:43;5.35;;;1.00;;
14076;SDS011;7114;51.100;13.998;2022-09-17T06:33:10;5.25;;;1.20;;
14076;SDS011;7114;51.100;13.998;2022-09-17T06:35:36;6.28;;;0.93;;
14076;SDS011;7114;51.100;13.998;2022-09-17T06:38:03;5.97;;;1.17;;
14076;SDS011;7114;51.100;13.998;2022-09-17T06:40:29;5.13;;;1.35;;
14076;SDS011;7114;51.100;13.998;2022-09-17T06:42:56;5.10;;;1.00;;
14076;SDS011;7114;51.100;13.998;2022-09-17T06:45:23;5.97;;;1.00;;
14076;SDS011;7114;51.100;13.998;2022-09-17T06:47:49;5.83;;;0.90;;
14076;SDS011;7114;51.100;13.998;2022-09-17T06:50:16;4.32;;;0.80;;
14076;SDS011;7114;51.100;13.998;2022-09-17T06:52:46;4.15;;;0.77;;
14076;SDS011;7114;51.100;13.998;2022-09-17T06:55:13;3.90;;;0.80;;
14076;SDS011;7114;51.100;13.998;2022-09-17T06:57:40;4.38;;;0.80;;
14076;SDS011;7114;51.100;13.998;2022-09-17T07:00:06;4.00;;;0.60;;
14076;SDS011;7114;51.100;13.998;2022-09-17T07:02:34;6.43;;;0.77;;
14076;SDS011;7114;51.100;13.998;2022-09-17T07:05:00;3.95;;;0.82;;
14076;SDS011;7114;51.100;13.998;2022-09-17T07:07:28;3.40;;;0.50;;
14076;SDS011;7114;51.100;13.998;2022-09-17T07:09:54;4.20;;;0.75;;
14076;SDS011;7114;51.100;13.998;2022-09-17T07:12:20;4.07;;;0.70;;
14076;SDS011;7114;51.100;13.998;2022-09-17T07:14:46;4.43;;;0.70;;
14076;SDS011;7114;51.100;13.998;2022-09-17T07:17:13;5.63;;;0.70;;
14076;SDS011;7114;51.100;13.998;2022-09-17T07:19:39;3.55;;;0.70;;
14076;SDS011;7114;51.100;13.998;2022-09-17T07:22:05;4.72;;;0.80;;
14076;SDS011;7114;51.100;13.998;2022-09-17T07:24:33;3.90;;;0.67;;
14076;SDS011;7114;51.100;13.998;2022-09-17T07:26:59;3.65;;;0.60;;
14076;SDS011;7114;51.100;13.998;2022-09-17T07:29:26;3.92;;;0.80;;
14076;SDS011;7114;51.100;13.998;2022-09-17T07:31:53;3.80;;;0.60;;
14076;SDS011;7114;51.100;13.998;2022-09-17T07:34:19;4.65;;;0.80;;
14076;SDS011;7114;51.100;13.998;2022-09-17T07:36:46;8.13;;;2.57;;
14076;SDS011;7114;51.100;13.998;2022-09-17T07:39:12;6.53;;;2.20;;
14076;SDS011;7114;51.100;13.998;2022-09-17T07:41:40;4.95;;;1.23;;
14076;SDS011;7114;51.100;13.998;2022-09-17T07:44:06;4.45;;;0.90;;
14076;SDS011;7114;51.100;13.998;2022-09-17T07:46:33;4.38;;;0.90;;
14076;SDS011;7114;51.100;13.998;2022-09-17T07:49:00;4.00;;;0.70;;
14076;SDS011;7114;51.100;13.998;2022-09-17T07:51:27;4.38;;;0.60;;
14076;SDS011;7114;51.100;13.998;2022-09-17T07:53:54;4.97;;;0.70;;
14076;SDS011;7114;51.100;13.998;2022-09-17T07:56:21;5.05;;;0.85;;
14076;SDS011;7114;51.100;13.998;2022-09-17T07:58:49;8.73;;;2.92;;
14076;SDS011;7114;51.100;13.998;2022-09-17T08:01:16;8.37;;;2.43;;
14076;SDS011;7114;51.100;13.998;2022-09-17T08:03:46;6.80;;;1.48;;
14076;SDS011;7114;51.100;13.998;2022-09-17T08:06:14;8.27;;;1.65;;
14076;SDS011;7114;51.100;13.998;2022-09-17T08:08:42;7.57;;;1.50;;
14076;SDS011;7114;51.100;13.998;2022-09-17T08:11:09;7.10;;;1.60;;
14076;SDS011;7114;51.100;13.998;2022-09-17T08:13:36;9.07;;;1.83;;
14076;SDS011;7114;51.100;13.998;2022-09-17T08:16:05;6.80;;;1.75;;
14076;SDS011;7114;51.100;13.998;2022-09-17T08:18:32;10.35;;;2.45;;
14076;SDS011;7114;51.100;13.998;2022-09-17T08:20:59;8.85;;;2.50;;
14076;SDS011;7114;51.100;13.998;2022-09-17T08:23:27;8.00;;;2.30;;
14076;SDS011;7114;51.100;13.998;2022-09-17T08:25:54;8.10;;;2.20;;
14076;SDS011;7114;51.100;13.998;2022-09-17T08:28:21;7.88;;;2.25;;
14076;SDS011;7114;51.100;13.998;2022-09-17T08:30:47;9.80;;;2.22;;
14076;SDS011;7114;51.100;13.998;2022-09-17T08:33:16;7.32;;;1.90;;
14076;SDS011;7114;51.100;13.998;2022-09-17T08:35:42;9.82;;;2.40;;
14076;SDS011;7114;51.100;13.998;2022-09-17T08:38:15;8.10;;;2.10;;
14076;SDS011;7114;51.100;13.998;2022-09-17T08:40:41;8.80;;;2.00;;
14076;SDS011;7114;51.100;13.998;2022-09-17T08:43:14;8.07;;;2.20;;
14076;SDS011;7114;51.100;13.998;2022-09-17T08:45:42;9.80;;;2.30;;
14076;SDS011;7114;51.100;13.998;2022-09-17T08:48:08;9.68;;;2.63;;
14076;SDS011;7114;51.100;13.998;2022-09-17T08:50:39;9.90;;;2.67;;
14076;SDS011;7114;51.100;13.998;2022-09-17T08:53:09;8.32;;;2.55;;
14076;SDS011;7114;51.100;13.998;2022-09-17T08:55:45;8.05;;;2.30;;
14076;SDS011;7114;51.100;13.998;2022-09-17T08:58:20;9.70;;;2.50;;
14076;SDS011;7114;51.100;13.998;2022-09-17T09:00:51;8.90;;;2.30;;
14076;SDS011;7114;51.100;13.998;2022-09-17T09:03:25;10.57;;;2.50;;
14076;SDS011;7114;51.100;13.998;2022-09-17T09:05:58;8.23;;;2.35;;
14076;SDS011;7114;51.100;13.998;2022-09-17T09:08:27;9.20;;;2.58;;
14076;SDS011;7114;51.100;13.998;2022-09-17T09:10:54;13.27;;;4.85;;
14076;SDS011;7114;51.100;13.998;2022-09-17T09:13:23;12.10;;;4.65;;
14076;SDS011;7114;51.100;13.998;2022-09-17T09:15:53;10.93;;;2.80;;
14076;SDS011;7114;51.100;13.998;2022-09-17T09:18:21;11.07;;;2.22;;
14076;SDS011;7114;51.100;13.998;2022-09-17T09:20:49;8.05;;;1.70;;
14076;SDS011;7114;51.100;13.998;2022-09-17T09:23:19;6.70;;;1.20;;
14076;SDS011;7114;51.100;13.998;2022-09-17T09:25:51;9.00;;;1.60;;
14076;SDS011;7114;51.100;13.998;2022-09-17T09:28:23;8.80;;;1.50;;
14076;SDS011;7114;51.100;13.998;2022-09-17T09:31:15;7.68;;;1.52;;
14076;SDS011;7114;51.100;13.998;2022-09-17T09:33:52;7.38;;;1.45;;
14076;SDS011;7114;51.100;13.998;2022-09-17T09:36:19;7.18;;;1.35;;
14076;SDS011;7114;51.100;13.998;2022-09-17T09:38:49;6.63;;;1.52;;
14076;SDS011;7114;51.100;13.998;2022-09-17T09:41:18;8.00;;;1.53;;
14076;SDS011;7114;51.100;13.998;2022-09-17T09:43:50;6.50;;;1.50;;
14076;SDS011;7114;51.100;13.998;2022-09-17T09:46:22;8.73;;;1.52;;
14076;SDS011;7114;51.100;13.998;2022-09-17T09:49:00;6.43;;;1.30;;
14076;SDS011;7114;51.100;13.998;2022-09-17T09:51:32;9.60;;;1.60;;
14076;SDS011;7114;51.100;13.998;2022-09-17T09:54:12;6.83;;;1.47;;
14076;SDS011;7114;51.100;13.998;2022-09-17T09:56:51;9.13;;;1.40;;
14076;SDS011;7114;51.100;13.998;2022-09-17T09:59:21;7.18;;;1.40;;
14076;SDS011;7114;51.100;13.998;2022-09-17T10:01:47;7.45;;;1.20;;
14076;SDS011;7114;51.100;13.998;2022-09-17T10:04:15;7.93;;;1.25;;
14076;SDS011;7114;51.100;13.998;2022-09-17T10:06:44;7.60;;;1.77;;
14076;SDS011;7114;51.100;13.998;2022-09-17T10:09:12;8.05;;;1.55;;
14076;SDS011;7114;51.100;13.998;2022-09-17T10:11:40;6.93;;;1.67;;
14076;SDS011;7114;51.100;13.998;2022-09-17T10:14:13;5.95;;;1.10;;
14076;SDS011;7114;51.100;13.998;2022-09-17T10:16:48;7.47;;;1.42;;
14076;SDS011;7114;51.100;13.998;2022-09-17T10:19:17;6.37;;;1.00;;
14076;SDS011;7114;51.100;13.998;2022-09-17T10:21:49;6.93;;;1.48;;
14076;SDS011;7114;51.100;13.998;2022-09-17T10:24:19;6.45;;;1.25;;
14076;SDS011;7114;51.100;13.998;2022-09-17T10:26:47;6.07;;;1.02;;
14076;SDS011;7114;51.100;13.998;2022-09-17T10:29:15;6.22;;;1.20;;
14076;SDS011;7114;51.100;13.998;2022-09-17T10:31:46;5.63;;;1.00;;
14076;SDS011;7114;51.100;13.998;2022-09-17T10:34:17;5.97;;;0.90;;
14076;SDS011;7114;51.100;13.998;2022-09-17T10:36:45;5.35;;;1.00;;
14076;SDS011;7114;51.100;13.998;2022-09-17T10:39:28;5.03;;;0.70;;
14076;SDS011;7114;51.100;13.998;2022-09-17T10:41:57;5.05;;;0.80;;
14076;SDS011;7114;51.100;13.998;2022-09-17T10:44:24;4.97;;;1.00;;
14076;SDS011;7114;51.100;13.998;2022-09-17T10:46:51;5.07;;;1.00;;
14076;SDS011;7114;51.100;13.998;2022-09-17T10:49:21;5.80;;;0.90;;
14076;SDS011;7114;51.100;13.998;2022-09-17T10:52:05;5.03;;;0.70;;
14076;SDS011;7114;51.100;13.998;2022-09-17T10:54:39;3.90;;;0.57;;
14076;SDS011;7114;51.100;13.998;2022-09-17T10:57:26;6.40;;;1.40;;
14076;SDS011;7114;51.100;13.998;2022-09-17T11:00:02;5.37;;;1.00;;
14076;SDS011;7114;51.100;13.998;2022-09-17T11:02:42;5.82;;;0.95;;
14076;SDS011;7114;51.100;13.998;2022-09-17T11:05:25;6.28;;;1.70;;
14076;SDS011;7114;51.100;13.998;2022-09-17T11:07:59;7.50;;;1.27;;
14076;SDS011;7114;51.100;13.998;2022-09-17T11:10:32;6.85;;;1.52;;
14076;SDS011;7114;51.100;13.998;2022-09-17T11:13:05;6.83;;;1.57;;
14076;SDS011;7114;51.100;13.998;2022-09-17T11:15:40;5.32;;;1.67;;
14076;SDS011;7114;51.100;13.998;2022-09-17T11:21:07;5.15;;;1.23;;
14076;SDS011;7114;51.100;13.998;2022-09-17T11:23:51;5.07;;;0.90;;
14076;SDS011;7114;51.100;13.998;2022-09-17T11:26:33;5.83;;;1.30;;
14076;SDS011;7114;51.100;13.998;2022-09-17T11:29:05;5.88;;;0.95;;
14076;SDS011;7114;51.100;13.998;2022-09-17T11:31:41;5.28;;;0.90;;
14076;SDS011;7114;51.100;13.998;2022-09-17T11:34:24;5.28;;;0.80;;
14076;SDS011;7114;51.100;13.998;2022-09-17T11:36:56;5.78;;;0.90;;
14076;SDS011;7114;51.100;13.998;2022-09-17T11:39:27;5.97;;;1.00;;
14076;SDS011;7114;51.100;13.998;2022-09-17T11:41:59;4.32;;;0.93;;
14076;SDS011;7114;51.100;13.998;2022-09-17T11:44:26;6.15;;;1.10;;
14076;SDS011;7114;51.100;13.998;2022-09-17T11:46:56;5.13;;;0.77;;
14076;SDS011;7114;51.100;13.998;2022-09-17T11:49:28;6.05;;;1.27;;
14076;SDS011;7114;51.100;13.998;2022-09-17T11:52:00;7.90;;;1.20;;
14076;SDS011;7114;51.100;13.998;2022-09-17T11:54:30;6.28;;;1.25;;
14076;SDS011;7114;51.100;13.998;2022-09-17T11:57:03;5.80;;;1.02;;
14076;SDS011;7114;51.100;13.998;2022-09-17T11:59:32;4.57;;;0.80;;
14076;SDS011;7114;51.100;13.998;2022-09-17T12:02:01;6.95;;;0.95;;
14076;SDS011;7114;51.100;13.998;2022-09-17T12:04:33;6.37;;;1.03;;
14076;SDS011;7114;51.100;13.998;2022-09-17T12:07:07;7.65;;;0.95;;
14076;SDS011;7114;51.100;13.998;2022-09-17T12:09:39;5.40;;;0.80;;
14076;SDS011;7114;51.100;13.998;2022-09-17T12:12:11;4.90;;;0.70;;
14076;SDS011;7114;51.100;13.998;2022-09-17T12:14:42;4.97;;;0.60;;
14076;SDS011;7114;51.100;13.998;2022-09-17T12:17:12;8.40;;;1.00;;
14076;SDS011;7114;51.100;13.998;2022-09-17T12:19:42;5.13;;;0.70;;
14076;SDS011;7114;51.100;13.998;2022-09-17T12:22:11;5.85;;;1.00;;
14076;SDS011;7114;51.100;13.998;2022-09-17T12:24:40;5.72;;;0.80;;
14076;SDS011;7114;51.100;13.998;2022-09-17T12:27:11;6.10;;;0.98;;
14076;SDS011;7114;51.100;13.998;2022-09-17T12:29:48;6.07;;;1.10;;
14076;SDS011;7114;51.100;13.998;2022-09-17T12:32:32;4.90;;;0.80;;
14076;SDS011;7114;51.100;13.998;2022-09-17T12:35:06;6.43;;;1.00;;
14076;SDS011;7114;51.100;13.998;2022-09-17T12:37:45;7.93;;;1.25;;
14076;SDS011;7114;51.100;13.998;2022-09-17T12:40:17;5.70;;;0.90;;
14076;SDS011;7114;51.100;13.998;2022-09-17T12:42:54;4.97;;;0.90;;
14076;SDS011;7114;51.100;13.998;2022-09-17T12:45:33;8.30;;;1.10;;
14076;SDS011;7114;51.100;13.998;2022-09-17T12:48:19;5.65;;;0.80;;
14076;SDS011;7114;51.100;13.998;2022-09-17T12:51:06;5.90;;;0.90;;
14076;SDS011;7114;51.100;13.998;2022-09-17T12:53:39;6.07;;;1.05;;
14076;SDS011;7114;51.100;13.998;2022-09-17T12:56:11;7.40;;;0.90;;
14076;SDS011;7114;51.100;13.998;2022-09-17T12:58:49;6.50;;;1.00;;
14076;SDS011;7114;51.100;13.998;2022-09-17T13:01:27;5.18;;;0.82;;
14076;SDS011;7114;51.100;13.998;2022-09-17T13:03:57;6.20;;;0.82;;
14076;SDS011;7114;51.100;13.998;2022-09-17T13:06:41;5.55;;;0.82;;
14076;SDS011;7114;51.100;13.998;2022-09-17T13:09:42;5.57;;;1.07;;
14076;SDS011;7114;51.100;13.998;2022-09-17T13:12:20;5.43;;;1.00;;
14076;SDS011;7114;51.100;13.998;2022-09-17T13:14:56;5.22;;;0.88;;
14076;SDS011;7114;51.100;13.998;2022-09-17T13:17:30;6.55;;;1.33;;
14076;SDS011;7114;51.100;13.998;2022-09-17T13:19:59;5.70;;;1.20;;
14076;SDS011;7114;51.100;13.998;2022-09-17T13:22:28;5.70;;;1.00;;
14076;SDS011;7114;51.100;13.998;2022-09-17T13:25:02;6.53;;;1.45;;
14076;SDS011;7114;51.100;13.998;2022-09-17T13:27:30;5.28;;;1.20;;
14076;SDS011;7114;51.100;13.998;2022-09-17T13:29:59;6.53;;;1.48;;
14076;SDS011;7114;51.100;13.998;2022-09-17T13:38:11;6.28;;;1.55;;
14076;SDS011;7114;51.100;13.998;2022-09-17T13:40:37;6.72;;;1.50;;
14076;SDS011;7114;51.100;13.998;2022-09-17T13:43:05;6.90;;;1.40;;
14076;SDS011;7114;51.100;13.998;2022-09-17T13:46:03;6.63;;;1.35;;
14076;SDS011;7114;51.100;13.998;2022-09-17T13:48:34;5.97;;;1.00;;
14076;SDS011;7114;51.100;13.998;2022-09-17T13:54:02;7.22;;;1.25;;
14076;SDS011;7114;51.100;13.998;2022-09-17T13:56:31;9.25;;;1.30;;
14076;SDS011;7114;51.100;13.998;2022-09-17T13:59:03;6.47;;;1.20;;
14076;SDS011;7114;51.100;13.998;2022-09-17T14:04:34;6.93;;;1.83;;
14076;SDS011;7114;51.100;13.998;2022-09-17T14:07:30;7.45;;;1.38;;
14076;SDS011;7114;51.100;13.998;2022-09-17T14:09:58;6.65;;;1.90;;
14076;SDS011;7114;51.100;13.998;2022-09-17T14:15:33;6.50;;;0.83;;
14076;SDS011;7114;51.100;13.998;2022-09-17T14:18:31;7.65;;;1.40;;
14076;SDS011;7114;51.100;13.998;2022-09-17T14:21:08;6.15;;;1.15;;
14076;SDS011;7114;51.100;13.998;2022-09-17T14:23:41;7.30;;;1.20;;
14076;SDS011;7114;51.100;13.998;2022-09-17T14:26:11;5.80;;;1.20;;
14076;SDS011;7114;51.100;13.998;2022-09-17T14:28:44;5.63;;;1.10;;
14076;SDS011;7114;51.100;13.998;2022-09-17T14:31:15;6.32;;;1.20;;
14076;SDS011;7114;51.100;13.998;2022-09-17T14:33:44;6.38;;;1.40;;
14076;SDS011;7114;51.100;13.998;2022-09-17T14:36:13;7.75;;;1.30;;
14076;SDS011;7114;51.100;13.998;2022-09-17T14:38:42;5.80;;;1.33;;
14076;SDS011;7114;51.100;13.998;2022-09-17T14:41:15;7.17;;;1.30;;
14076;SDS011;7114;51.100;13.998;2022-09-17T14:43:45;4.80;;;0.90;;
14076;SDS011;7114;51.100;13.998;2022-09-17T14:46:17;5.78;;;1.02;;
14076;SDS011;7114;51.100;13.998;2022-09-17T14:48:46;6.70;;;1.10;;
14076;SDS011;7114;51.100;13.998;2022-09-17T14:51:21;5.75;;;1.38;;
14076;SDS011;7114;51.100;13.998;2022-09-17T14:56:41;7.45;;;1.10;;
14076;SDS011;7114;51.100;13.998;2022-09-17T14:59:11;6.70;;;1.70;;
14076;SDS011;7114;51.100;13.998;2022-09-17T15:01:44;7.75;;;1.50;;
14076;SDS011;7114;51.100;13.998;2022-09-17T15:04:21;10.80;;;1.60;;
14076;SDS011;7114;51.100;13.998;2022-09-17T15:06:48;5.90;;;1.33;;
14076;SDS011;7114;51.100;13.998;2022-09-17T15:09:16;9.10;;;1.70;;
14076;SDS011;7114;51.100;13.998;2022-09-17T15:11:43;7.65;;;1.30;;
14076;SDS011;7114;51.100;13.998;2022-09-17T15:14:13;7.22;;;1.23;;
14076;SDS011;7114;51.100;13.998;2022-09-17T15:16:45;6.65;;;0.90;;
14076;SDS011;7114;51.100;13.998;2022-09-17T15:19:13;6.23;;;1.10;;
14076;SDS011;7114;51.100;13.998;2022-09-17T15:21:47;6.60;;;0.90;;
14076;SDS011;7114;51.100;13.998;2022-09-17T15:24:14;6.45;;;1.23;;
14076;SDS011;7114;51.100;13.998;2022-09-17T15:26:46;6.75;;;0.90;;